createdAt,value
2018-09-02T00:00:11.649Z,6.67
2018-09-02T00:02:40.765Z,6.10
2018-09-02T00:05:09.955Z,6.40
2018-09-02T00:07:39.084Z,6.83
2018-09-02T00:10:08.727Z,6.00
2018-09-02T00:12:37.849Z,5.90
2018-09-02T00:15:06.971Z,6.33
2018-09-02T00:17:36.118Z,6.73
2018-09-02T00:20:05.489Z,6.20
2018-09-02T00:22:34.618Z,6.33
2018-09-02T00:25:03.761Z,5.90
2018-09-02T00:27:32.984Z,5.90
2018-09-02T00:30:02.218Z,5.93
2018-09-02T00:32:31.381Z,6.27
2018-09-02T00:35:00.515Z,6.30
2018-09-02T00:37:29.607Z,6.30
2018-09-02T00:39:58.748Z,6.27
2018-09-02T00:42:27.883Z,6.43
2018-09-02T00:44:57.007Z,6.30
2018-09-02T00:47:26.158Z,5.90
2018-09-02T00:49:55.368Z,6.30
2018-09-02T00:52:24.597Z,6.10
2018-09-02T00:54:53.721Z,6.17
2018-09-02T00:57:22.863Z,6.40
2018-09-02T00:59:52.199Z,6.00
2018-09-02T01:02:21.404Z,6.13
2018-09-02T01:04:50.655Z,6.40
2018-09-02T01:07:19.863Z,6.70
2018-09-02T01:09:49.932Z,6.60
2018-09-02T01:12:19.083Z,7.30
2018-09-02T01:14:48.295Z,6.80
2018-09-02T01:17:17.430Z,6.87
2018-09-02T01:19:47.249Z,6.03
2018-09-02T01:22:16.854Z,6.97
2018-09-02T01:24:46.899Z,7.00
2018-09-02T01:27:16.737Z,7.30
2018-09-02T01:29:45.792Z,7.20
2018-09-02T01:32:16.606Z,7.47
2018-09-02T01:34:46.780Z,6.80
2018-09-02T01:37:15.841Z,7.30
2018-09-02T01:39:45.010Z,7.00
2018-09-02T01:42:14.269Z,7.10
2018-09-02T01:44:43.332Z,7.30
2018-09-02T01:47:12.494Z,7.50
2018-09-02T01:49:41.635Z,7.07
2018-09-02T01:52:10.829Z,6.90
2018-09-02T01:54:40.000Z,7.00
2018-09-02T01:57:09.145Z,7.10
2018-09-02T01:59:38.283Z,7.10
2018-09-02T02:02:07.444Z,7.67
2018-09-02T02:04:41.750Z,7.47
2018-09-02T02:07:13.302Z,7.80
2018-09-02T02:09:42.952Z,7.60
2018-09-02T02:12:12.067Z,7.87
2018-09-02T02:14:41.212Z,7.63
2018-09-02T02:17:11.041Z,7.43
2018-09-02T02:19:40.153Z,7.77
2018-09-02T02:22:09.337Z,7.90
2018-09-02T02:24:38.441Z,7.63
2018-09-02T02:27:07.625Z,7.17
2018-09-02T02:29:36.934Z,7.80
2018-09-02T02:32:06.165Z,7.70
2018-09-02T02:34:35.396Z,7.40
2018-09-02T02:37:04.822Z,8.00
2018-09-02T02:39:33.929Z,7.80
2018-09-02T02:42:03.129Z,8.17
2018-09-02T02:44:32.256Z,7.70
2018-09-02T02:47:01.474Z,7.93
2018-09-02T02:49:30.602Z,8.27
2018-09-02T02:51:59.820Z,7.30
2018-09-02T02:54:29.867Z,7.67
2018-09-02T02:56:59.106Z,8.30
2018-09-02T02:59:28.240Z,7.93
2018-09-02T03:01:57.566Z,8.10
2018-09-02T03:04:26.705Z,8.30
2018-09-02T03:06:55.900Z,8.20
2018-09-02T03:09:25.066Z,9.13
2018-09-02T03:11:54.159Z,9.03
2018-09-02T03:14:23.920Z,8.50
2018-09-02T03:16:55.507Z,8.33
2018-09-02T03:19:24.606Z,8.30
2018-09-02T03:21:53.821Z,8.30
2018-09-02T03:24:22.967Z,8.37
2018-09-02T03:26:52.037Z,8.43
2018-09-02T03:29:21.838Z,8.63
2018-09-02T03:31:51.584Z,8.53
2018-09-02T03:34:20.702Z,8.30
2018-09-02T03:36:50.183Z,9.40
2018-09-02T03:39:19.292Z,9.67
2018-09-02T03:41:48.469Z,8.63
2018-09-02T03:44:17.571Z,9.30
2018-09-02T03:46:46.838Z,8.83
2018-09-02T03:49:17.232Z,9.50
2018-09-02T03:51:46.445Z,8.93
2018-09-02T03:54:16.048Z,8.93
2018-09-02T03:56:45.278Z,8.50
2018-09-02T03:59:15.145Z,9.00
2018-09-02T04:01:44.386Z,9.13
2018-09-02T04:04:13.548Z,9.60
2018-09-02T04:06:43.190Z,10.03
2018-09-02T04:09:12.654Z,9.50
2018-09-02T04:11:42.152Z,9.70
2018-09-02T04:14:11.262Z,10.20
2018-09-02T04:16:40.389Z,10.90
2018-09-02T04:19:10.804Z,9.43
2018-09-02T04:21:39.926Z,9.40
2018-09-02T04:24:09.057Z,9.67
2018-09-02T04:26:38.395Z,9.30
2018-09-02T04:29:07.553Z,9.60
2018-09-02T04:31:36.696Z,9.50
2018-09-02T04:34:05.792Z,8.67
2018-09-02T04:36:34.916Z,9.27
2018-09-02T04:39:05.416Z,9.30
2018-09-02T04:41:34.543Z,9.90
2018-09-02T04:44:03.680Z,10.10
2018-09-02T04:46:33.187Z,9.57
2018-09-02T04:49:02.306Z,9.80
2018-09-02T04:51:36.968Z,10.10
2018-09-02T04:54:06.077Z,10.23
2018-09-02T04:56:35.108Z,10.47
2018-09-02T04:59:04.425Z,10.50
2018-09-02T05:01:33.568Z,10.73
2018-09-02T05:04:04.158Z,10.67
2018-09-02T05:06:33.263Z,11.17
2018-09-02T05:09:02.679Z,10.33
2018-09-02T05:11:31.844Z,9.83
2018-09-02T05:14:01.965Z,10.70
2018-09-02T05:16:32.550Z,11.00
2018-09-02T05:19:01.810Z,11.03
2018-09-02T05:21:31.007Z,11.70
2018-09-02T05:24:00.155Z,12.13
2018-09-02T05:26:32.252Z,12.17
2018-09-02T05:29:02.065Z,12.10
2018-09-02T05:31:31.251Z,10.63
2018-09-02T05:34:00.383Z,10.73
2018-09-02T05:36:29.510Z,10.67
2018-09-02T05:38:59.428Z,10.60
2018-09-02T05:41:28.636Z,10.18
2018-09-02T05:43:57.806Z,10.00
2018-09-02T05:46:27.046Z,10.97
2018-09-02T05:48:56.284Z,10.07
2018-09-02T05:51:25.461Z,9.93
2018-09-02T05:53:55.168Z,10.90
2018-09-02T05:56:24.313Z,10.63
2018-09-02T05:58:53.467Z,10.60
2018-09-02T06:01:22.621Z,11.23
2018-09-02T06:03:51.695Z,11.13
2018-09-02T06:06:20.870Z,11.10
2018-09-02T06:08:50.027Z,11.43
2018-09-02T06:11:19.237Z,11.67
2018-09-02T06:13:49.136Z,10.90
2018-09-02T06:16:18.396Z,11.70
2018-09-02T06:18:47.539Z,11.70
2018-09-02T06:21:17.174Z,11.47
2018-09-02T06:23:47.492Z,11.73
2018-09-02T06:26:16.616Z,11.43
2018-09-02T06:28:45.799Z,10.37
2018-09-02T06:31:15.580Z,11.50
2018-09-02T06:33:44.747Z,12.13
2018-09-02T06:36:13.878Z,11.97
2018-09-02T06:38:43.052Z,11.83
2018-09-02T06:41:12.210Z,11.70
2018-09-02T06:43:42.533Z,14.47
2018-09-02T06:46:11.667Z,13.50
2018-09-02T06:48:40.935Z,14.27
2018-09-02T06:51:10.185Z,13.83
2018-09-02T06:53:39.412Z,14.70
2018-09-02T06:56:08.609Z,16.60
2018-09-02T06:58:37.827Z,17.77
2018-09-02T07:01:07.135Z,17.50
2018-09-02T07:03:36.289Z,17.00
2018-09-02T07:06:06.399Z,17.83
2018-09-02T07:08:36.965Z,18.37
2018-09-02T07:11:06.180Z,18.73
2018-09-02T07:13:35.349Z,19.60
2018-09-02T07:16:04.495Z,20.50
2018-09-02T07:18:33.667Z,19.40
2018-09-02T07:21:02.784Z,20.03
2018-09-02T07:23:31.940Z,17.83
2018-09-02T07:26:01.108Z,19.37
2018-09-02T07:28:30.268Z,18.27
2018-09-02T07:30:59.400Z,18.43
2018-09-02T07:33:28.527Z,18.73
2018-09-02T07:35:57.715Z,21.10
2018-09-02T07:38:26.892Z,21.53
2018-09-02T07:40:56.840Z,22.27
2018-09-02T07:43:27.397Z,21.20
2018-09-02T07:45:56.568Z,20.33
2018-09-02T07:48:25.697Z,19.10
2018-09-02T07:50:54.826Z,22.10
2018-09-02T07:53:23.950Z,21.23
2018-09-02T07:55:53.151Z,20.97
2018-09-02T07:58:22.373Z,19.93
2018-09-02T08:00:51.584Z,20.37
2018-09-02T08:03:21.675Z,19.20
2018-09-02T08:05:51.571Z,19.30
2018-09-02T08:08:21.098Z,19.20
2018-09-02T08:10:50.234Z,17.43
2018-09-02T08:13:19.395Z,18.27
2018-09-02T08:15:48.550Z,19.20
2018-09-02T08:18:17.752Z,18.03
2018-09-02T08:32:56.010Z,16.90
2018-09-02T08:35:25.733Z,17.67
2018-09-02T08:37:55.000Z,15.73
2018-09-02T08:40:24.938Z,16.50
2018-09-02T08:42:54.545Z,15.53
2018-09-02T08:45:23.661Z,18.23
2018-09-02T08:47:52.800Z,16.43
2018-09-02T08:50:22.296Z,16.00
2018-09-02T08:52:51.712Z,16.10
2018-09-02T08:55:20.810Z,16.73
2018-09-02T08:57:50.304Z,17.57
2018-09-02T09:00:19.779Z,17.63
2018-09-02T09:02:50.095Z,16.70
2018-09-02T09:05:19.270Z,16.53
2018-09-02T09:07:48.695Z,15.17
2018-09-02T09:10:17.538Z,14.67
2018-09-02T09:12:46.706Z,15.50
2018-09-02T09:15:15.895Z,15.87
2018-09-02T09:17:45.163Z,13.97
2018-09-02T09:20:14.381Z,13.43
2018-09-02T09:22:43.481Z,13.10
2018-09-02T09:25:12.864Z,13.20
2018-09-02T09:27:42.436Z,12.60
2018-09-02T09:30:11.595Z,12.53
2018-09-02T09:32:40.843Z,12.77
2018-09-02T09:35:10.175Z,12.10
2018-09-02T09:37:39.338Z,12.20
2018-09-02T09:40:08.549Z,11.70
2018-09-02T09:42:37.661Z,10.97
2018-09-02T09:45:06.929Z,11.73
2018-09-02T09:47:36.673Z,11.73
2018-09-02T09:50:06.797Z,10.60
2018-09-02T09:52:35.997Z,9.87
2018-09-02T09:55:05.187Z,9.70
2018-09-02T09:57:34.488Z,9.80
2018-09-02T10:00:03.953Z,9.10
2018-09-02T10:02:33.123Z,8.53
2018-09-02T10:05:03.049Z,9.40
2018-09-02T10:07:32.751Z,9.43
2018-09-02T10:10:01.880Z,8.40
2018-09-02T10:12:31.766Z,7.07
2018-09-02T10:15:00.848Z,6.30
2018-09-02T10:17:30.135Z,7.60
2018-09-02T10:19:59.379Z,6.93
2018-09-02T10:22:28.610Z,6.60
2018-09-02T10:24:57.684Z,6.47
2018-09-02T10:27:28.681Z,6.73
2018-09-02T10:29:57.780Z,6.80
2018-09-02T10:32:27.261Z,5.07
2018-09-02T10:34:56.491Z,5.33
2018-09-02T10:37:26.249Z,5.97
2018-09-02T10:39:55.654Z,5.60
2018-09-02T10:42:24.922Z,6.40
2018-09-02T10:44:54.125Z,6.03
2018-09-02T10:47:24.969Z,5.40
2018-09-02T10:49:54.451Z,5.80
2018-09-02T10:52:24.221Z,5.03
2018-09-02T10:54:53.399Z,4.97
2018-09-02T10:57:22.608Z,4.90
2018-09-02T10:59:52.798Z,4.57
2018-09-02T11:02:21.982Z,4.63
2018-09-02T11:04:51.212Z,5.30
2018-09-02T11:07:26.723Z,4.47
2018-09-02T11:09:55.825Z,4.63
2018-09-02T11:12:26.368Z,4.43
2018-09-02T11:14:55.890Z,4.90
2018-09-02T11:17:25.216Z,4.80
2018-09-02T11:19:54.355Z,4.60
2018-09-02T11:22:25.007Z,4.17
2018-09-02T11:24:54.189Z,4.27
2018-09-02T11:27:23.310Z,4.03
2018-09-02T11:29:53.247Z,3.77
2018-09-02T11:32:22.942Z,3.63
2018-09-02T11:34:52.917Z,3.53
2018-09-02T11:37:22.356Z,3.40
2018-09-02T11:39:51.645Z,4.07
2018-09-02T11:42:21.072Z,4.60
2018-09-02T11:44:53.022Z,3.77
2018-09-02T11:47:22.146Z,3.53
2018-09-02T11:49:51.523Z,3.87
2018-09-02T11:52:21.500Z,3.93
2018-09-02T11:54:50.628Z,3.77
2018-09-02T11:57:20.309Z,3.70
2018-09-02T11:59:50.855Z,3.70
2018-09-02T12:02:20.209Z,3.80
2018-09-02T12:04:49.569Z,3.47
2018-09-02T12:07:18.740Z,4.07
2018-09-02T12:09:48.107Z,3.60
2018-09-02T12:12:18.668Z,3.70
2018-09-02T12:14:49.473Z,3.60
2018-09-02T12:17:18.544Z,3.30
2018-09-02T12:19:48.817Z,3.40
2018-09-02T12:22:17.979Z,3.50
2018-09-02T12:24:48.336Z,3.40
2018-09-02T12:27:17.524Z,3.53
2018-09-02T12:29:46.882Z,3.53
2018-09-02T12:32:16.653Z,3.50
2018-09-02T12:34:45.936Z,3.40
2018-09-02T12:37:15.184Z,3.90
2018-09-02T12:39:44.415Z,3.60
2018-09-02T12:42:14.398Z,3.77
2018-09-02T12:44:43.686Z,3.50
2018-09-02T12:47:13.110Z,3.57
2018-09-02T12:49:42.904Z,3.50
2018-09-02T12:52:12.008Z,3.37
2018-09-02T12:54:41.172Z,3.20
2018-09-02T12:57:10.340Z,3.40
2018-09-02T12:59:39.666Z,3.10
2018-09-02T13:02:08.797Z,3.00
2018-09-02T13:04:38.057Z,3.60
2018-09-02T13:07:07.497Z,2.97
2018-09-02T13:09:38.537Z,3.33
2018-09-02T13:12:07.633Z,3.37
2018-09-02T13:14:37.937Z,3.00
2018-09-02T13:17:07.180Z,3.00
2018-09-02T13:19:37.095Z,2.90
2018-09-02T13:22:06.296Z,3.50
2018-09-02T13:24:35.867Z,3.00
2018-09-02T13:27:05.320Z,3.57
2018-09-02T13:29:34.519Z,3.37
2018-09-02T13:32:06.198Z,3.30
2018-09-02T13:34:35.554Z,3.20
2018-09-02T13:37:06.177Z,3.43
2018-09-02T13:39:35.258Z,3.00
2018-09-02T13:42:05.547Z,3.30
2018-09-02T13:44:34.705Z,3.80
2018-09-02T13:47:05.452Z,3.27
2018-09-02T13:49:34.619Z,3.30
2018-09-02T13:52:03.936Z,3.23
2018-09-02T13:54:33.255Z,3.47
2018-09-02T13:57:02.478Z,3.50
2018-09-02T13:59:31.894Z,3.30
2018-09-02T14:02:00.963Z,3.77
2018-09-02T14:04:30.060Z,3.50
2018-09-02T14:07:01.677Z,3.27
2018-09-02T14:09:30.862Z,3.63
2018-09-02T14:12:00.177Z,3.20
2018-09-02T14:14:29.274Z,3.27
2018-09-02T14:16:58.511Z,3.27
2018-09-02T14:19:29.051Z,3.27
2018-09-02T14:21:59.757Z,3.40
2018-09-02T14:24:29.565Z,2.87
2018-09-02T14:26:58.744Z,3.33
2018-09-02T14:29:27.966Z,3.33
2018-09-02T14:31:57.233Z,3.30
2018-09-02T14:34:26.557Z,3.30
2018-09-02T14:36:55.752Z,2.90
2018-09-02T14:39:24.951Z,3.10
2018-09-02T14:41:54.019Z,3.20
2018-09-02T14:44:23.106Z,3.50
2018-09-02T14:46:52.199Z,3.20
2018-09-02T14:49:22.653Z,3.07
2018-09-02T14:51:54.845Z,3.33
2018-09-02T14:54:24.068Z,3.37
2018-09-02T14:56:53.304Z,3.30
2018-09-02T14:59:22.420Z,3.67
2018-09-02T15:01:54.077Z,3.27
2018-09-02T15:04:23.978Z,3.50
2018-09-02T15:06:53.073Z,3.13
2018-09-02T15:09:22.339Z,3.40
2018-09-02T15:11:52.804Z,3.27
2018-09-02T15:14:22.100Z,3.87
2018-09-02T15:16:51.311Z,3.00
2018-09-02T15:19:20.576Z,3.13
2018-09-02T15:21:51.255Z,3.80
2018-09-02T15:24:20.422Z,3.30
2018-09-02T15:26:49.479Z,3.37
2018-09-02T15:29:20.233Z,3.50
2018-09-02T15:31:52.443Z,3.50
2018-09-02T15:34:21.641Z,3.17
2018-09-02T15:36:51.357Z,3.15
2018-09-02T15:39:20.617Z,3.20
2018-09-02T15:41:49.664Z,3.27
2018-09-02T15:44:18.971Z,3.10
2018-09-02T15:46:48.101Z,3.20
2018-09-02T15:49:17.266Z,3.30
2018-09-02T15:51:47.925Z,3.40
2018-09-02T15:54:17.007Z,3.58
2018-09-02T15:56:46.155Z,3.22
2018-09-02T15:59:15.243Z,3.22
2018-09-02T16:01:44.844Z,3.35
2018-09-02T16:04:13.961Z,2.70
2018-09-02T16:06:43.225Z,3.20
2018-09-02T16:09:13.347Z,3.10
2018-09-02T16:11:42.519Z,2.95
2018-09-02T16:14:12.064Z,3.17
2018-09-02T16:16:41.613Z,3.17
2018-09-02T16:19:12.836Z,2.90
2018-09-02T16:21:43.049Z,3.27
2018-09-02T16:24:12.356Z,2.92
2018-09-02T16:26:41.415Z,3.10
2018-09-02T16:29:10.844Z,3.27
2018-09-02T16:31:39.917Z,3.10
2018-09-02T16:34:10.096Z,3.37
2018-09-02T16:36:39.408Z,3.30
2018-09-02T16:39:09.852Z,3.05
2018-09-02T16:41:39.022Z,3.10
2018-09-02T16:44:08.274Z,3.27
2018-09-02T16:46:37.618Z,3.40
2018-09-02T16:49:06.747Z,3.58
2018-09-02T16:51:35.941Z,3.42
2018-09-02T16:54:05.324Z,3.10
2018-09-02T16:56:34.575Z,3.50
2018-09-02T16:59:03.654Z,3.05
2018-09-02T17:01:34.557Z,3.20
2018-09-02T17:04:06.027Z,3.40
2018-09-02T17:06:36.352Z,3.30
2018-09-02T17:09:09.833Z,3.40
2018-09-02T17:11:39.518Z,3.22
2018-09-02T17:14:10.549Z,3.30
2018-09-02T17:16:40.885Z,3.70
2018-09-02T17:19:18.966Z,3.45
2018-09-02T17:21:48.177Z,3.40
2018-09-02T17:24:17.405Z,3.10
2018-09-02T17:26:46.564Z,3.40
2018-09-02T17:29:15.789Z,3.37
2018-09-02T17:31:44.903Z,3.20
2018-09-02T17:34:14.041Z,3.00
2018-09-02T17:36:43.339Z,3.60
2018-09-02T17:39:13.341Z,3.30
2018-09-02T17:41:43.256Z,3.07
2018-09-02T17:44:12.441Z,3.10
2018-09-02T17:46:42.397Z,3.40
2018-09-02T17:49:11.727Z,3.70
2018-09-02T17:51:40.935Z,3.80
2018-09-02T17:54:10.481Z,3.20
2018-09-02T17:56:39.580Z,3.50
2018-09-02T17:59:08.825Z,3.03
2018-09-02T18:01:38.212Z,3.10
2018-09-02T18:04:07.307Z,3.10
2018-09-02T18:06:36.521Z,2.93
2018-09-02T18:09:09.126Z,3.23
2018-09-02T18:11:39.542Z,3.20
2018-09-02T18:14:10.167Z,3.13
2018-09-02T18:16:39.786Z,3.27
2018-09-02T18:19:08.999Z,3.00
2018-09-02T18:21:38.343Z,3.17
2018-09-02T18:24:07.510Z,3.27
2018-09-02T18:26:38.506Z,3.67
2018-09-02T18:29:07.794Z,3.40
2018-09-02T18:31:37.207Z,3.50
2018-09-02T18:34:06.695Z,3.07
2018-09-02T18:36:37.311Z,3.27
2018-09-02T18:39:10.129Z,3.13
2018-09-02T18:41:39.769Z,3.30
2018-09-02T18:44:09.604Z,3.00
2018-09-02T18:46:39.127Z,3.30
2018-09-02T18:49:08.544Z,3.20
2018-09-02T18:51:38.155Z,3.00
2018-09-02T18:54:07.325Z,3.10
2018-09-02T18:56:36.549Z,3.13
2018-09-02T18:59:07.691Z,3.33
2018-09-02T19:01:36.773Z,3.20
2018-09-02T19:04:06.032Z,3.33
2018-09-02T19:06:35.319Z,3.17
2018-09-02T19:09:06.304Z,3.50
2018-09-02T19:11:35.536Z,3.47
2018-09-02T19:14:04.704Z,3.13
2018-09-02T19:16:34.934Z,3.77
2018-09-02T19:19:04.492Z,3.23
2018-09-02T19:21:33.703Z,3.37
2018-09-02T19:24:03.111Z,3.57
2018-09-02T19:26:32.215Z,3.70
2018-09-02T19:29:03.486Z,3.93
2018-09-02T19:31:32.895Z,3.50
2018-09-02T19:34:02.462Z,3.90
2018-09-02T19:36:31.702Z,3.13
2018-09-02T19:39:01.031Z,3.40
2018-09-02T19:41:30.134Z,3.80
2018-09-02T19:43:59.442Z,3.50
2018-09-02T19:46:28.695Z,3.87
2018-09-02T19:48:58.206Z,3.73
2018-09-02T19:51:27.310Z,3.83
2018-09-02T19:53:56.624Z,4.10
2018-09-02T19:56:25.860Z,3.90
2018-09-02T19:58:55.348Z,3.70
2018-09-02T20:01:24.573Z,4.00
2018-09-02T20:03:54.034Z,3.80
2018-09-02T20:06:23.313Z,3.93
2018-09-02T20:08:52.828Z,3.80
2018-09-02T20:11:23.470Z,4.10
2018-09-02T20:13:53.171Z,3.43
2018-09-02T20:16:22.587Z,3.83
2018-09-02T20:18:51.677Z,3.80
2018-09-02T20:21:21.062Z,3.90
2018-09-02T20:23:50.184Z,3.70
2018-09-02T20:26:19.267Z,3.87
2018-09-02T20:28:48.534Z,3.70
2018-09-02T20:31:17.921Z,3.70
2018-09-02T20:33:47.118Z,3.67
2018-09-02T20:36:16.632Z,3.77
2018-09-02T20:38:46.014Z,3.77
2018-09-02T20:41:15.793Z,3.53
2018-09-02T20:43:44.881Z,3.90
2018-09-02T20:46:14.148Z,3.90
2018-09-02T20:48:43.242Z,4.00
2018-09-02T20:51:12.634Z,3.63
2018-09-02T20:53:41.594Z,4.20
2018-09-02T20:56:12.033Z,3.93
2018-09-02T20:58:41.194Z,3.80
2018-09-02T21:01:10.566Z,3.93
2018-09-02T21:03:39.916Z,4.17
2018-09-02T21:06:09.221Z,4.20
2018-09-02T21:08:38.377Z,4.17
2018-09-02T21:11:07.475Z,4.30
2018-09-02T21:13:36.885Z,4.37
2018-09-02T21:16:06.023Z,4.10
2018-09-02T21:18:35.342Z,4.00
2018-09-02T21:21:04.441Z,4.30
2018-09-02T21:23:33.497Z,4.10
2018-09-02T21:26:04.862Z,4.00
2018-09-02T21:28:33.956Z,4.27
2018-09-02T21:31:02.994Z,3.80
2018-09-02T21:33:32.125Z,4.23
2018-09-02T21:36:01.180Z,4.03
2018-09-02T21:38:30.333Z,3.90
2018-09-02T21:40:59.600Z,4.07
2018-09-02T21:43:28.977Z,4.47
2018-09-02T21:45:58.413Z,4.03
2018-09-02T21:48:27.697Z,4.10
2018-09-02T21:50:57.008Z,4.17
2018-09-02T21:53:26.148Z,4.20
2018-09-02T21:55:56.690Z,4.40
2018-09-02T21:58:26.189Z,4.10
2018-09-02T22:00:55.343Z,4.30
2018-09-02T22:03:24.547Z,4.07
2018-09-02T22:05:54.421Z,4.33
2018-09-02T22:08:24.772Z,4.20
2018-09-02T22:10:53.960Z,4.30
2018-09-02T22:13:23.391Z,4.23
2018-09-02T22:15:54.837Z,4.43
2018-09-02T22:18:24.075Z,4.33
2018-09-02T22:20:53.217Z,4.20
2018-09-02T22:23:24.222Z,4.50
2018-09-02T22:25:55.329Z,4.13
2018-09-02T22:28:25.158Z,4.50
2018-09-02T22:30:54.847Z,4.50
2018-09-02T22:33:24.754Z,4.57
2018-09-02T22:35:54.052Z,4.20
2018-09-02T22:38:23.425Z,4.07
2018-09-02T22:40:52.640Z,4.57
2018-09-02T22:43:23.528Z,3.93
2018-09-02T22:45:55.207Z,4.30
2018-09-02T22:48:24.272Z,4.30
2018-09-02T22:50:53.484Z,4.20
2018-09-02T22:53:22.638Z,4.37
2018-09-02T22:55:51.744Z,4.40
2018-09-02T22:58:20.812Z,4.10
2018-09-02T23:00:50.029Z,4.57
2018-09-02T23:03:20.596Z,4.30
2018-09-02T23:05:51.436Z,4.20
2018-09-02T23:08:22.087Z,4.23
2018-09-02T23:10:51.168Z,4.27
2018-09-02T23:13:22.339Z,4.00
2018-09-02T23:15:51.493Z,3.90
2018-09-02T23:18:20.685Z,4.67
2018-09-02T23:20:49.750Z,4.80
2018-09-02T23:23:18.963Z,4.23
2018-09-02T23:25:48.209Z,4.67
2018-09-02T23:28:17.434Z,4.40
2018-09-02T23:30:46.563Z,4.47
2018-09-02T23:33:16.441Z,4.30
2018-09-02T23:35:46.861Z,4.57
2018-09-02T23:38:17.618Z,4.10
2018-09-02T23:40:46.750Z,4.40
2018-09-02T23:43:17.440Z,4.63
2018-09-02T23:45:46.553Z,4.77
2018-09-02T23:48:15.733Z,4.30
2018-09-02T23:50:45.933Z,4.50
2018-09-02T23:53:15.061Z,4.40
2018-09-02T23:55:45.181Z,4.60
2018-09-02T23:58:14.476Z,4.57
